OJAQ/AQJ METAR and TAF weather

Enter ICAO airport designator
Station Type Date Time Source
OJAQ METAR 2020/10/20 17:00 UTC NOAA

OJAQ 201700Z 34005KT CAVOK 33/20 Q1012 NOSIG


Station Type Date Time Source
OJAQ Decoded METAR 2020/10/20 17:00 UTC NOAA

Aqaba Airport, Jordan (OJAQ) 29-38N 035-01E 51M
Oct 20, 2020 - 01:00 PM EDT / 2020.10.20 1700 UTC
Wind: from the NNW (340 degrees) at 6 MPH (5 KT):0
Visibility: greater than 7 mile(s):0
Temperature: 91 F (33 C)
Heat index: 94.6 F (34.8 C):1
Dew Point: 68 F (20 C)
Relative Humidity: 46%
Pressure (altimeter): 29.88 in. Hg (1012 hPa)
ob: OJAQ 201700Z 34005KT CAVOK 33/20 Q1012 NOSIG
cycle: 17

Station Type Date Time Source
OJAQ TAF 2020/10/20 12:15 UTC NOAA

TAF TAF OJAQ 201025Z 2012/2118 36012KT 7000 NSC

Example: see airport list